Time;durP1;ratioP1;P1;durP2;ratioP2;P2;SDS_P1;SDS_P2;PMS_P1;PMS_P2;Temp;Humidity;BMP_temperature;BMP_pressure;BME280_temperature;BME280_humidity;BME280_pressure;Samples;Min_cycle;Max_cycle;Signal;HPM_P1;HPM_P2
2022/05/28 00:01:27;;;;;;;11.93;6.93;;;11.70;99.90;;;;;;4213894;28;20057;-75
2022/05/28 00:03:30;;;;;;;11.85;6.35;;;11.70;99.90;;;;;;4214021;28;20057;-76
2022/05/28 00:05:32;;;;;;;8.68;5.60;;;11.60;99.90;;;;;;4209936;28;21371;-76
2022/05/28 00:07:34;;;;;;;8.65;6.82;;;11.60;99.90;;;;;;4206475;28;20082;-75
2022/05/28 00:09:35;;;;;;;19.05;7.47;;;11.50;99.90;;;;;;4207256;28;20060;-76
2022/05/28 00:11:41;;;;;;;14.77;8.18;;;11.60;99.90;;;;;;4208688;28;20061;-77
2022/05/28 00:13:43;;;;;;;8.38;7.05;;;11.60;99.90;;;;;;4208656;28;20163;-75
2022/05/28 00:15:45;;;;;;;10.73;7.45;;;11.70;99.90;;;;;;4212652;28;20078;-77
2022/05/28 00:17:48;;;;;;;13.32;7.88;;;11.70;99.90;;;;;;4210498;28;20057;-78
2022/05/28 00:19:51;;;;;;;17.48;8.88;;;11.80;99.90;;;;;;4208763;28;20099;-77
2022/05/28 00:21:52;;;;;;;12.35;8.40;;;11.80;99.90;;;;;;4212444;28;20159;-77
2022/05/28 00:23:55;;;;;;;13.50;7.95;;;11.90;99.90;;;;;;4207052;28;20061;-77
2022/05/28 00:25:56;;;;;;;13.27;8.48;;;11.90;99.90;;;;;;4206238;28;20068;-77
2022/05/28 00:27:58;;;;;;;26.98;9.15;;;11.90;99.90;;;;;;4203675;28;20164;-77
2022/05/28 00:30:00;;;;;;;15.27;7.93;;;11.80;99.90;;;;;;4205303;28;20879;-76
2022/05/28 00:32:02;;;;;;;13.75;8.38;;;11.80;99.90;;;;;;4205663;28;20775;-75
2022/05/28 00:34:04;;;;;;;12.77;7.30;;;11.90;99.90;;;;;;4207069;28;20064;-76
2022/05/28 00:36:09;;;;;;;12.82;6.85;;;11.80;99.90;;;;;;4205287;28;20063;-76
2022/05/28 00:38:11;;;;;;;38.15;21.13;;;11.80;99.90;;;;;;4203263;28;20045;-75
2022/05/28 00:40:18;;;;;;;20.42;11.00;;;11.80;99.90;;;;;;4201347;28;20056;-75
2022/05/28 00:42:19;;;;;;;24.15;14.13;;;11.70;99.90;;;;;;4202984;28;20179;-75
2022/05/28 00:44:21;;;;;;;35.40;20.45;;;11.70;99.90;;;;;;4200536;28;20049;-76
2022/05/28 00:46:25;;;;;;;22.05;12.10;;;11.60;99.90;;;;;;4203855;28;20096;-75
2022/05/28 00:48:31;;;;;;;20.05;12.63;;;11.60;99.90;;;;;;4199981;28;20768;-75
2022/05/28 00:50:35;;;;;;;19.10;10.07;;;11.50;99.90;;;;;;4202352;28;20064;-76
2022/05/28 00:52:38;;;;;;;19.38;9.80;;;11.50;99.90;;;;;;4206809;28;20076;-75
2022/05/28 00:54:45;;;;;;;36.40;10.43;;;11.40;99.90;;;;;;4200602;28;20067;-75
2022/05/28 00:56:47;;;;;;;18.10;8.65;;;11.40;99.90;;;;;;4204369;28;20079;-75
2022/05/28 00:58:49;;;;;;;15.60;9.32;;;11.40;99.90;;;;;;4206350;28;20056;-76
2022/05/28 01:00:51;;;;;;;17.95;10.02;;;11.40;99.90;;;;;;4203322;28;20053;-75
2022/05/28 01:03:05;;;;;;;9.30;7.78;;;11.50;99.90;;;;;;4204486;28;20195;-76
2022/05/28 01:05:20;;;;;;;14.77;7.07;;;11.50;99.90;;;;;;4208097;28;20056;-75
2022/05/28 01:07:41;;;;;;;19.58;10.25;;;11.50;99.90;;;;;;4204082;28;20188;-76
2022/05/28 01:09:57;;;;;;;;;;;11.40;99.90;;;;;;4211900;28;20917;-76
2022/05/28 01:12:07;;;;;;;19.42;9.20;;;11.40;99.90;;;;;;4210368;28;19929;-75
2022/05/28 01:14:30;;;;;;;16.58;7.00;;;11.40;99.90;;;;;;4205157;28;20152;-75
2022/05/28 01:16:37;;;;;;;11.48;7.10;;;11.40;99.90;;;;;;4208487;28;20057;-75
2022/05/28 01:18:54;;;;;;;10.90;6.53;;;11.30;99.90;;;;;;4206265;28;20941;-76
2022/05/28 01:21:06;;;;;;;14.68;8.95;;;11.30;99.90;;;;;;4207138;28;20139;-76
2022/05/28 01:23:22;;;;;;;13.45;8.32;;;11.20;99.90;;;;;;4209433;28;20061;-76
2022/05/28 01:25:40;;;;;;;13.35;8.30;;;11.20;99.90;;;;;;4207792;28;20891;-76
2022/05/28 01:27:54;;;;;;;11.77;6.80;;;11.30;99.90;;;;;;4207938;28;20099;-76
2022/05/28 01:30:04;;;;;;;10.18;6.30;;;11.20;99.90;;;;;;4207602;28;20179;-76
2022/05/28 01:32:07;;;;;;;13.57;5.97;;;11.20;99.90;;;;;;4208145;28;20061;-74
2022/05/28 01:34:10;;;;;;;14.57;5.32;;;11.10;99.90;;;;;;4204855;28;20241;-73
2022/05/28 01:36:14;;;;;;;11.95;4.93;;;10.80;99.90;;;;;;4206772;28;20184;-75
2022/05/28 01:38:18;;;;;;;5.55;4.78;;;10.60;99.90;;;;;;4205575;28;20064;-75
2022/05/28 01:40:22;;;;;;;9.48;4.82;;;10.50;99.90;;;;;;4206723;28;20094;-75
2022/05/28 01:42:25;;;;;;;7.78;4.50;;;10.60;99.90;;;;;;4209880;28;20060;-74
2022/05/28 01:44:29;;;;;;;10.30;5.38;;;10.50;99.90;;;;;;4203755;28;20183;-76
2022/05/28 01:46:33;;;;;;;13.63;5.45;;;10.50;99.90;;;;;;4203222;28;20802;-74
2022/05/28 01:48:37;;;;;;;11.55;5.65;;;10.50;99.90;;;;;;4203487;28;20065;-76
2022/05/28 01:50:45;;;;;;;9.65;4.75;;;10.40;99.90;;;;;;4201924;28;20057;-76
2022/05/28 01:52:48;;;;;;;15.35;5.20;;;10.40;99.90;;;;;;4201118;28;20056;-76
2022/05/28 01:54:52;;;;;;;16.23;6.30;;;10.40;99.90;;;;;;4202949;28;20878;-76
2022/05/28 01:56:55;;;;;;;6.82;5.25;;;10.30;99.90;;;;;;4199515;28;20114;-75
2022/05/28 01:58:57;;;;;;;14.27;5.07;;;10.20;99.90;;;;;;4204233;28;20661;-76
2022/05/28 02:01:01;;;;;;;12.73;5.65;;;10.00;99.90;;;;;;4202287;28;20067;-75
2022/05/28 02:03:05;;;;;;;10.63;4.72;;;9.90;99.90;;;;;;4199994;28;20064;-76
2022/05/28 02:05:07;;;;;;;8.15;4.20;;;9.90;99.90;;;;;;4203990;28;20871;-76
2022/05/28 02:07:10;;;;;;;8.57;4.95;;;9.90;99.90;;;;;;4198661;28;20103;-76
2022/05/28 02:09:16;;;;;;;8.93;4.45;;;9.90;99.90;;;;;;4202912;28;20167;-75
2022/05/28 02:11:25;;;;;;;11.10;4.85;;;9.90;99.90;;;;;;4202644;28;20156;-76
2022/05/28 02:13:41;;;;;;;16.13;5.60;;;9.90;99.90;;;;;;4202487;28;20083;-76
2022/05/28 02:15:47;;;;;;;16.17;5.80;;;10.00;99.90;;;;;;4202718;28;20187;-76
2022/05/28 02:18:18;;;;;;;13.70;5.03;;;10.10;99.90;;;;;;4204320;28;20056;-77
2022/05/28 02:20:39;;;;;;;13.13;4.55;;;10.10;99.90;;;;;;4202227;28;20085;-75
2022/05/28 02:23:01;;;;;;;14.27;5.43;;;10.00;99.90;;;;;;4209186;28;20931;-76
2022/05/28 02:25:20;;;;;;;10.30;3.60;;;9.80;99.90;;;;;;4205917;28;20057;-75
2022/05/28 02:27:24;;;;;;;7.72;4.82;;;9.80;99.90;;;;;;4206020;28;20057;-76
2022/05/28 02:29:27;;;;;;;11.32;5.93;;;9.70;99.90;;;;;;4208159;28;20045;-76
2022/05/28 02:31:32;;;;;;;14.27;5.93;;;9.70;99.90;;;;;;4210554;28;20099;-76
2022/05/28 02:33:34;;;;;;;11.50;6.10;;;9.70;99.90;;;;;;4209101;28;20863;-76
2022/05/28 02:35:36;;;;;;;10.00;6.60;;;9.70;99.90;;;;;;4210134;28;20054;-77
2022/05/28 02:37:38;;;;;;;13.13;5.20;;;9.70;99.90;;;;;;4205825;28;20061;-78
2022/05/28 02:39:39;;;;;;;12.85;4.82;;;9.70;99.90;;;;;;4208237;28;20052;-77
2022/05/28 02:41:41;;;;;;;16.35;5.18;;;9.70;99.90;;;;;;4209456;28;20040;-77
2022/05/28 02:43:43;;;;;;;10.40;4.20;;;9.60;99.90;;;;;;4209979;28;20718;-76
2022/05/28 02:45:45;;;;;;;7.20;3.45;;;9.40;99.90;;;;;;4207409;28;20056;-76
2022/05/28 02:47:47;;;;;;;14.57;4.05;;;9.40;99.90;;;;;;4208795;28;20891;-76
2022/05/28 02:49:48;;;;;;;10.40;3.65;;;9.30;99.90;;;;;;4211170;28;20063;-76
2022/05/28 02:51:50;;;;;;;16.15;3.88;;;9.20;99.90;;;;;;4209124;28;20059;-77
2022/05/28 02:53:53;;;;;;;14.90;4.57;;;9.10;99.90;;;;;;4206702;28;20871;-76
2022/05/28 02:55:55;;;;;;;8.88;3.97;;;9.20;99.90;;;;;;4203037;28;20654;-75
2022/05/28 02:57:56;;;;;;;9.85;3.30;;;9.20;99.90;;;;;;4203856;28;20060;-75
2022/05/28 02:59:58;;;;;;;10.07;4.13;;;9.20;99.90;;;;;;4203999;28;20053;-76
2022/05/28 03:02:00;;;;;;;8.57;3.85;;;9.20;99.90;;;;;;4203436;28;20049;-77
2022/05/28 03:04:04;;;;;;;7.97;3.40;;;9.10;99.90;;;;;;4203758;28;20051;-76
2022/05/28 03:06:06;;;;;;;16.08;4.05;;;9.10;99.90;;;;;;4207016;28;20090;-77
2022/05/28 03:08:07;;;;;;;7.10;2.55;;;9.10;99.90;;;;;;4209821;28;20088;-76
2022/05/28 03:10:11;;;;;;;14.73;3.13;;;9.00;99.90;;;;;;4204232;28;20090;-77
2022/05/28 03:12:13;;;;;;;9.57;3.05;;;9.00;99.90;;;;;;4215089;28;20118;-77
2022/05/28 03:14:17;;;;;;;15.98;3.00;;;8.90;99.90;;;;;;4203533;28;20057;-77
2022/05/28 03:16:19;;;;;;;10.32;2.90;;;8.80;99.90;;;;;;4204650;28;20894;-77
2022/05/28 03:18:20;;;;;;;7.32;3.13;;;8.90;99.90;;;;;;4202709;28;20041;-77
2022/05/28 03:20:22;;;;;;;9.23;3.28;;;8.90;99.90;;;;;;4215076;28;20131;-76
2022/05/28 03:22:24;;;;;;;12.50;3.25;;;8.90;99.90;;;;;;4213978;28;20071;-76
2022/05/28 03:24:25;;;;;;;11.50;3.83;;;8.90;99.90;;;;;;4204656;28;20868;-77
2022/05/28 03:26:29;;;;;;;11.27;3.08;;;8.90;99.90;;;;;;4211889;28;20049;-76
2022/05/28 03:28:31;;;;;;;12.65;3.13;;;9.00;99.90;;;;;;4202902;28;20084;-78
2022/05/28 03:30:33;;;;;;;8.18;2.92;;;9.00;99.90;;;;;;4202282;28;20049;-77
2022/05/28 03:32:35;;;;;;;12.40;2.83;;;9.00;99.90;;;;;;4205801;28;20068;-76
2022/05/28 03:34:36;;;;;;;8.45;3.00;;;9.00;99.90;;;;;;4206548;28;20095;-77
2022/05/28 03:36:38;;;;;;;19.33;3.28;;;8.90;99.90;;;;;;4206568;28;20159;-76
2022/05/28 03:38:40;;;;;;;13.07;3.53;;;8.70;99.90;;;;;;4210869;28;20100;-77
2022/05/28 03:40:41;;;;;;;9.52;3.63;;;8.80;99.90;;;;;;4209493;28;20110;-76
2022/05/28 03:42:43;;;;;;;13.00;4.45;;;8.70;99.90;;;;;;4208232;28;20871;-78
2022/05/28 03:44:45;;;;;;;9.13;3.08;;;8.70;99.90;;;;;;4209384;28;20885;-78
2022/05/28 03:46:47;;;;;;;11.02;3.17;;;8.80;99.90;;;;;;4208091;28;20053;-77
2022/05/28 03:48:50;;;;;;;12.38;3.75;;;8.80;99.90;;;;;;4204115;28;20835;-76
2022/05/28 03:50:51;;;;;;;12.27;3.38;;;8.90;99.90;;;;;;4208203;28;20064;-76
2022/05/28 03:52:53;;;;;;;10.20;3.03;;;8.90;99.90;;;;;;4207634;28;20057;-76
2022/05/28 03:54:55;;;;;;;13.05;3.22;;;8.90;99.90;;;;;;4211789;28;20059;-76
2022/05/28 03:57:00;;;;;;;5.35;2.92;;;8.90;99.90;;;;;;4206167;28;20053;-76
2022/05/28 03:59:04;;;;;;;11.05;3.15;;;9.00;99.90;;;;;;4206805;28;20183;-77
2022/05/28 04:01:05;;;;;;;16.00;2.83;;;9.00;99.90;;;;;;4207097;28;20890;-76
2022/05/28 04:03:07;;;;;;;11.73;3.08;;;9.00;99.90;;;;;;4205565;28;20064;-77
2022/05/28 04:05:10;;;;;;;8.60;2.40;;;8.90;99.90;;;;;;4206998;28;20868;-76
2022/05/28 04:07:13;;;;;;;9.75;2.78;;;8.90;99.90;;;;;;4207808;28;20103;-76
2022/05/28 04:09:15;;;;;;;14.48;3.97;;;9.00;99.90;;;;;;4207488;28;20152;-76
2022/05/28 04:11:17;;;;;;;8.93;3.45;;;9.10;99.90;;;;;;4208362;28;20164;-76
2022/05/28 04:13:19;;;;;;;9.00;3.38;;;9.20;99.90;;;;;;4208921;28;20080;-76
2022/05/28 04:15:22;;;;;;;9.85;2.13;;;9.20;99.90;;;;;;4206458;28;20051;-76
2022/05/28 04:17:24;;;;;;;12.40;3.10;;;9.10;99.90;;;;;;4207292;28;20061;-76
2022/05/28 04:19:25;;;;;;;11.07;2.65;;;9.10;99.90;;;;;;4211946;28;20057;-75
2022/05/28 04:21:27;;;;;;;7.05;2.67;;;9.10;99.90;;;;;;4204242;28;20056;-76
2022/05/28 04:23:29;;;;;;;5.07;2.78;;;9.20;99.90;;;;;;4203557;28;20057;-76
2022/05/28 04:25:30;;;;;;;11.98;2.72;;;9.30;99.90;;;;;;4202624;28;20059;-76
2022/05/28 04:27:32;;;;;;;13.50;3.47;;;9.40;99.90;;;;;;4201835;28;20065;-75
2022/05/28 04:29:36;;;;;;;8.43;2.55;;;9.30;99.90;;;;;;4206589;28;20123;-75
2022/05/28 04:31:38;;;;;;;9.20;2.40;;;9.30;99.90;;;;;;4200158;28;20107;-75
2022/05/28 04:33:40;;;;;;;13.40;2.97;;;9.30;99.90;;;;;;4202304;28;20053;-76
2022/05/28 04:35:41;;;;;;;9.40;2.33;;;9.30;99.90;;;;;;4200487;28;20893;-75
2022/05/28 04:37:43;;;;;;;13.07;2.40;;;9.30;99.90;;;;;;4202702;28;20064;-76
2022/05/28 04:39:45;;;;;;;11.32;3.00;;;9.20;99.90;;;;;;4201231;28;20061;-76
2022/05/28 04:41:47;;;;;;;10.23;2.60;;;9.10;99.90;;;;;;4211845;28;20190;-75
2022/05/28 04:43:48;;;;;;;10.68;2.97;;;9.10;99.90;;;;;;4207248;28;20048;-76
2022/05/28 04:45:50;;;;;;;14.63;3.17;;;9.10;99.90;;;;;;4213769;28;20164;-75
2022/05/28 04:47:52;;;;;;;8.30;2.55;;;9.10;99.90;;;;;;4201876;28;20067;-75
2022/05/28 04:49:53;;;;;;;13.80;5.28;;;9.20;99.90;;;;;;4207570;28;20139;-75
2022/05/28 04:51:55;;;;;;;15.85;5.50;;;9.20;99.90;;;;;;4212360;28;20099;-75
2022/05/28 04:53:57;;;;;;;12.23;5.00;;;9.30;99.90;;;;;;4211731;28;20048;-75
2022/05/28 04:55:58;;;;;;;13.20;6.30;;;9.30;99.90;;;;;;4211573;28;20645;-75
2022/05/28 04:58:00;;;;;;;17.63;6.40;;;9.30;99.90;;;;;;4201282;28;20923;-76
2022/05/28 05:00:05;;;;;;;12.90;3.95;;;9.30;99.90;;;;;;4207213;28;20057;-75
2022/05/28 05:02:08;;;;;;;12.77;2.80;;;9.30;99.90;;;;;;4207527;28;20057;-76
2022/05/28 05:04:09;;;;;;;22.50;5.47;;;9.50;99.90;;;;;;4206835;28;21402;-75
2022/05/28 05:06:11;;;;;;;10.63;2.50;;;9.50;99.90;;;;;;4207440;28;20783;-75
2022/05/28 05:08:17;;;;;;;9.38;2.95;;;9.70;99.90;;;;;;4207752;28;20056;-75
2022/05/28 05:10:19;;;;;;;8.35;3.38;;;9.70;99.90;;;;;;4208303;28;20872;-75
2022/05/28 05:12:21;;;;;;;11.43;3.58;;;9.80;99.90;;;;;;4207293;28;20888;-75
2022/05/28 05:14:22;;;;;;;6.65;2.17;;;9.90;99.90;;;;;;4208039;28;21356;-75
2022/05/28 05:16:24;;;;;;;12.45;2.80;;;9.90;99.90;;;;;;4218104;28;20052;-76
2022/05/28 05:18:26;;;;;;;12.93;2.38;;;9.90;99.90;;;;;;4208834;28;20887;-75
2022/05/28 05:20:27;;;;;;;8.70;2.75;;;9.90;99.90;;;;;;4212078;28;20052;-76
2022/05/28 05:22:29;;;;;;;13.38;3.10;;;9.90;99.90;;;;;;4211414;28;20059;-75
2022/05/28 05:24:33;;;;;;;16.73;2.83;;;9.90;99.90;;;;;;4212126;28;20776;-75
2022/05/28 05:26:35;;;;;;;8.10;2.22;;;9.90;99.90;;;;;;4209369;28;20646;-76
2022/05/28 05:28:37;;;;;;;12.35;2.40;;;9.80;99.90;;;;;;4212220;28;20786;-75
2022/05/28 05:30:44;;;;;;;14.73;2.78;;;9.80;99.90;;;;;;4210628;28;20622;-75
2022/05/28 05:32:46;;;;;;;13.23;3.40;;;9.80;99.90;;;;;;4210583;28;20836;-76
2022/05/28 05:34:48;;;;;;;16.77;4.45;;;9.90;99.90;;;;;;4211413;28;20083;-76
2022/05/28 05:36:50;;;;;;;18.42;5.95;;;10.00;99.90;;;;;;4211481;28;20067;-75
2022/05/28 05:38:51;;;;;;;10.23;3.65;;;10.10;99.90;;;;;;4209677;28;20055;-76
2022/05/28 05:40:53;;;;;;;8.18;3.40;;;10.20;99.90;;;;;;4208916;28;20053;-76
2022/05/28 05:42:58;;;;;;;16.20;3.78;;;10.20;99.90;;;;;;4208960;28;20052;-76
2022/05/28 05:45:00;;;;;;;13.30;3.33;;;10.30;99.90;;;;;;4210854;28;20828;-76
2022/05/28 05:47:02;;;;;;;6.70;2.55;;;10.30;99.90;;;;;;4207725;28;20049;-76
2022/05/28 05:49:04;;;;;;;5.75;2.40;;;10.10;99.90;;;;;;4203757;28;20057;-76
2022/05/28 05:51:12;;;;;;;9.93;3.47;;;10.10;99.90;;;;;;4199545;28;20904;-75
2022/05/28 05:53:14;;;;;;;9.65;2.80;;;10.20;99.90;;;;;;4203002;28;20064;-75
2022/05/28 05:55:16;;;;;;;16.48;3.67;;;10.20;99.90;;;;;;4198803;28;20667;-76
2022/05/28 05:57:18;;;;;;;11.60;2.95;;;10.30;99.90;;;;;;4205433;28;20096;-76
2022/05/28 05:59:20;;;;;;;9.88;3.22;;;10.40;99.90;;;;;;4203951;28;20060;-76
2022/05/28 06:01:23;;;;;;;11.68;3.60;;;10.60;99.90;;;;;;4199264;28;20083;-76
2022/05/28 06:03:25;;;;;;;11.95;3.90;;;10.70;99.90;;;;;;4204255;28;20152;-76
2022/05/28 06:05:27;;;;;;;10.82;4.05;;;10.80;99.90;;;;;;4199914;28;20107;-76
2022/05/28 06:07:29;;;;;;;10.80;3.50;;;10.90;99.90;;;;;;4202086;28;20060;-76
2022/05/28 06:09:31;;;;;;;14.00;2.80;;;10.90;99.90;;;;;;4212143;28;20126;-77
2022/05/28 06:11:34;;;;;;;9.48;2.63;;;11.10;99.90;;;;;;4208099;28;20052;-76
2022/05/28 06:13:36;;;;;;;16.20;2.70;;;11.20;99.90;;;;;;4204162;28;20056;-75
2022/05/28 06:15:38;;;;;;;14.13;3.45;;;11.20;99.90;;;;;;4202033;28;20167;-76
2022/05/28 06:17:40;;;;;;;6.10;2.55;;;11.30;99.90;;;;;;4203590;28;20061;-76
2022/05/28 06:19:42;;;;;;;9.50;2.17;;;11.40;99.90;;;;;;4205474;28;20075;-76
2022/05/28 06:21:43;;;;;;;7.35;2.10;;;11.50;99.90;;;;;;4204875;28;20152;-76
2022/05/28 06:23:45;;;;;;;12.05;2.20;;;11.40;99.90;;;;;;4205590;28;20810;-76
2022/05/28 06:25:47;;;;;;;9.43;2.03;;;11.40;99.90;;;;;;4206373;28;20154;-76
2022/05/28 06:27:49;;;;;;;8.65;2.17;;;11.40;99.90;;;;;;4203801;28;20080;-76
2022/05/28 06:29:52;;;;;;;8.30;2.10;;;11.50;99.40;;;;;;4206587;28;21943;-77
2022/05/28 06:31:54;;;;;;;6.45;2.10;;;11.50;99.90;;;;;;4205005;28;20071;-77
2022/05/28 06:33:56;;;;;;;8.80;2.22;;;11.60;99.30;;;;;;4204902;28;20061;-77
2022/05/28 06:35:59;;;;;;;4.85;1.88;;;11.70;98.20;;;;;;4208158;28;20067;-77
2022/05/28 06:38:01;;;;;;;7.38;1.55;;;11.70;97.10;;;;;;4203073;28;20131;-77
2022/05/28 06:40:04;;;;;;;6.20;1.42;;;11.80;96.40;;;;;;4207505;28;20064;-77
2022/05/28 06:42:06;;;;;;;5.90;1.58;;;11.80;96.70;;;;;;4207290;28;20061;-77
2022/05/28 06:44:08;;;;;;;7.03;1.48;;;11.80;96.00;;;;;;4205957;28;20163;-77
2022/05/28 06:46:10;;;;;;;5.22;1.60;;;11.70;93.40;;;;;;4209942;28;20148;-77
2022/05/28 06:48:13;;;;;;;5.00;2.05;;;11.60;94.70;;;;;;4208396;28;20233;-75
2022/05/28 06:52:37;;;;;;;3.90;1.25;;;11.70;93.90;;;;;;4204502;28;20061;-75
2022/05/28 06:54:39;;;;;;;5.32;1.65;;;11.80;93.60;;;;;;4208504;28;20175;-75
2022/05/28 06:56:40;;;;;;;4.47;1.08;;;11.80;93.50;;;;;;4201184;28;20195;-74
2022/05/28 06:58:45;;;;;;;4.82;1.38;;;11.80;92.60;;;;;;4200145;28;20183;-75
2022/05/28 07:00:47;;;;;;;6.05;1.35;;;11.80;91.70;;;;;;4203085;28;20151;-74
2022/05/28 07:02:49;;;;;;;3.63;1.20;;;11.80;92.10;;;;;;4207008;28;20653;-74
2022/05/28 07:04:51;;;;;;;5.57;1.35;;;11.90;92.10;;;;;;4200780;28;20060;-74
2022/05/28 07:06:52;;;;;;;4.53;1.08;;;11.90;90.00;;;;;;4198027;28;20784;-74
2022/05/28 07:08:54;;;;;;;3.92;1.60;;;11.80;88.10;;;;;;4203270;28;20210;-75
2022/05/28 07:10:59;;;;;;;9.38;1.65;;;11.90;90.00;;;;;;4200350;28;20064;-74
2022/05/28 07:13:01;;;;;;;6.15;1.25;;;11.90;90.50;;;;;;4203632;28;20159;-74
2022/05/28 07:15:04;;;;;;;5.40;1.42;;;11.80;89.60;;;;;;4200258;28;20082;-74
2022/05/28 07:17:05;;;;;;;11.15;2.15;;;11.90;90.50;;;;;;4206070;28;20100;-74
2022/05/28 07:19:07;;;;;;;5.88;1.23;;;11.80;88.90;;;;;;4201938;28;20064;-74
2022/05/28 07:21:11;;;;;;;7.07;1.30;;;11.90;88.00;;;;;;4200134;28;20057;-75
2022/05/28 07:23:18;;;;;;;7.32;1.30;;;12.00;87.70;;;;;;4200240;28;20163;-74
2022/05/28 07:25:20;;;;;;;5.80;1.13;;;12.10;86.40;;;;;;4204909;28;20156;-75
2022/05/28 07:27:22;;;;;;;3.33;1.05;;;12.10;85.60;;;;;;4199614;28;20064;-75
2022/05/28 07:29:24;;;;;;;2.47;0.98;;;12.20;90.20;;;;;;4208571;28;20060;-77
2022/05/28 07:31:26;;;;;;;5.75;1.20;;;12.30;85.50;;;;;;4210499;28;20064;-76
2022/05/28 07:33:30;;;;;;;4.32;1.13;;;12.30;86.50;;;;;;4211328;28;20087;-77
2022/05/28 07:35:32;;;;;;;6.72;0.95;;;12.30;85.10;;;;;;4208228;28;20059;-77
2022/05/28 07:37:34;;;;;;;3.30;1.17;;;12.50;85.30;;;;;;4207240;28;20856;-76
2022/05/28 07:39:36;;;;;;;4.93;0.85;;;12.50;85.10;;;;;;4207455;28;20159;-76
2022/05/28 07:41:37;;;;;;;7.15;1.40;;;12.60;84.20;;;;;;4210022;28;20947;-75
2022/05/28 07:43:40;;;;;;;5.30;1.48;;;12.70;81.00;;;;;;4213100;28;20074;-76
2022/05/28 07:45:43;;;;;;;3.42;1.08;;;12.60;85.20;;;;;;4213563;28;20097;-76
2022/05/28 07:47:45;;;;;;;6.57;1.27;;;12.60;85.00;;;;;;4213495;28;20102;-77
2022/05/28 07:49:46;;;;;;;5.00;1.33;;;12.70;86.00;;;;;;4213642;28;20134;-77
2022/05/28 07:51:48;;;;;;;6.22;1.13;;;12.80;89.80;;;;;;4213010;28;20061;-76
2022/05/28 07:53:50;;;;;;;3.60;0.95;;;12.90;84.00;;;;;;4212503;28;20856;-77
2022/05/28 07:55:52;;;;;;;6.53;1.23;;;13.00;83.00;;;;;;4211869;28;20061;-77
2022/05/28 07:57:54;;;;;;;5.10;1.77;;;13.10;87.00;;;;;;4209935;28;20060;-77
2022/05/28 07:59:55;;;;;;;6.07;1.27;;;13.30;88.10;;;;;;4210524;28;20274;-77
2022/05/28 08:01:57;;;;;;;10.90;1.55;;;13.40;88.70;;;;;;4206505;28;20143;-77
2022/05/28 08:03:59;;;;;;;5.75;1.10;;;13.50;83.10;;;;;;4213013;28;20835;-77
2022/05/28 08:06:01;;;;;;;3.00;0.88;;;13.50;79.70;;;;;;4207944;28;20880;-77
2022/05/28 08:08:04;;;;;;;5.05;0.93;;;13.50;82.00;;;;;;4209798;28;20061;-77
2022/05/28 08:10:07;;;;;;;3.63;0.60;;;13.40;77.80;;;;;;4202515;28;20056;-76
2022/05/28 08:12:09;;;;;;;2.35;0.50;;;13.40;75.20;;;;;;4203567;28;20066;-78
2022/05/28 08:14:10;;;;;;;7.97;1.10;;;13.40;79.10;;;;;;4204635;28;20065;-77
2022/05/28 08:16:12;;;;;;;5.45;1.20;;;13.40;78.60;;;;;;4203314;28;20083;-78
2022/05/28 08:18:18;;;;;;;4.68;1.63;;;13.50;80.30;;;;;;4212950;28;20087;-79
2022/05/28 08:20:19;;;;;;;5.07;1.13;;;13.50;80.60;;;;;;4205941;28;20063;-77
2022/05/28 08:25:02;;;;;;;4.25;0.95;;;13.50;77.10;;;;;;4208071;28;20061;-77
2022/05/28 08:27:04;;;;;;;3.67;0.95;;;13.20;73.90;;;;;;4209923;28;20060;-78
2022/05/28 08:29:06;;;;;;;3.28;1.33;;;13.20;76.60;;;;;;4212546;28;20054;-77
2022/05/28 08:31:07;;;;;;;2.88;1.30;;;13.30;77.00;;;;;;4208263;28;20049;-77
2022/05/28 08:33:11;;;;;;;7.03;1.48;;;13.40;77.20;;;;;;4203990;28;20100;-77
2022/05/28 08:35:13;;;;;;;5.35;1.30;;;13.40;73.80;;;;;;4205447;28;20096;-77
2022/05/28 08:37:15;;;;;;;2.15;1.02;;;13.40;73.10;;;;;;4212197;28;20063;-79
2022/05/28 08:39:16;;;;;;;3.17;0.95;;;13.20;74.50;;;;;;4207442;28;20147;-78
2022/05/28 08:41:21;;;;;;;10.38;2.67;;;13.10;75.00;;;;;;4204730;28;20148;-78
2022/05/28 08:43:28;;;;;;;3.78;1.60;;;13.00;74.40;;;;;;4207689;28;20061;-79
2022/05/28 08:45:32;;;;;;;4.00;1.50;;;13.20;75.60;;;;;;4210877;28;20815;-78
2022/05/28 08:47:40;;;;;;;1.88;0.65;;;13.50;77.50;;;;;;4205875;28;20057;-77
2022/05/28 08:49:44;;;;;;;1.33;0.55;;;13.70;74.90;;;;;;4210553;28;20645;-76
2022/05/28 08:51:54;;;;;;;2.22;0.70;;;13.70;72.90;;;;;;4208501;28;20122;-76
2022/05/28 08:54:03;;;;;;;3.60;0.60;;;13.80;74.30;;;;;;4203719;28;20068;-77
2022/05/28 08:56:05;;;;;;;1.67;0.55;;;13.90;71.30;;;;;;4212074;28;20067;-76
2022/05/28 08:58:14;;;;;;;4.03;1.33;;;13.90;73.50;;;;;;4211367;28;20144;-77
2022/05/28 09:00:20;;;;;;;2.70;0.70;;;13.90;73.20;;;;;;4213747;28;20064;-76
2022/05/28 09:02:31;;;;;;;4.05;0.80;;;14.00;73.40;;;;;;4212789;28;20064;-76
2022/05/28 09:04:38;;;;;;;2.65;0.65;;;14.10;71.40;;;;;;4211215;28;20056;-77
2022/05/28 09:06:49;;;;;;;3.92;0.70;;;14.20;70.60;;;;;;4212686;28;20075;-77
2022/05/28 09:08:54;;;;;;;3.03;0.73;;;14.50;71.10;;;;;;4207472;28;20052;-72
2022/05/28 09:11:02;;;;;;;4.28;0.93;;;14.70;68.50;;;;;;4211372;28;20092;-76
2022/05/28 09:13:14;;;;;;;2.88;0.90;;;14.70;66.40;;;;;;4210899;28;20088;-75
2022/05/28 09:15:16;;;;;;;4.53;1.33;;;14.80;66.70;;;;;;4209133;28;20805;-74
2022/05/28 09:17:38;;;;;;;2.78;1.02;;;14.60;67.80;;;;;;4212394;28;20179;-75
2022/05/28 09:19:42;;;;;;;5.15;1.15;;;14.50;69.00;;;;;;4208646;28;20061;-74
2022/05/28 09:21:45;;;;;;;2.70;0.70;;;14.30;67.80;;;;;;4202649;28;20084;-76
2022/05/28 09:24:10;;;;;;;4.18;0.80;;;14.10;68.60;;;;;;4209319;28;20053;-75
2022/05/28 09:26:15;;;;;;;4.35;0.95;;;14.20;72.00;;;;;;4211502;28;20057;-75
2022/05/28 09:28:42;;;;;;;4.80;1.20;;;14.50;71.00;;;;;;4208410;28;20060;-75
2022/05/28 09:30:53;;;;;;;1.65;0.70;;;14.80;68.30;;;;;;4209585;28;20084;-76
2022/05/28 09:33:10;;;;;;;2.38;0.60;;;15.10;67.80;;;;;;4211574;28;20060;-76
2022/05/28 09:35:32;;;;;;;3.13;0.85;;;15.10;67.40;;;;;;4208474;28;20060;-77
2022/05/28 09:38:08;;;;;;;1.35;0.35;;;14.80;67.20;;;;;;4208354;28;20061;-75
2022/05/28 09:40:40;;;;;;;2.28;1.13;;;14.80;62.30;;;;;;4208173;28;20056;-74
2022/05/28 09:43:02;;;;;;;6.05;1.50;;;14.70;61.60;;;;;;4202588;28;20065;-76
2022/05/28 09:45:05;;;;;;;3.58;0.85;;;14.70;63.20;;;;;;4200425;28;20123;-76
2022/05/28 09:47:12;;;;;;;6.28;1.27;;;14.90;65.20;;;;;;4202339;28;20072;-75
2022/05/28 09:49:15;;;;;;;4.85;1.17;;;15.00;62.90;;;;;;4202211;28;20057;-76
2022/05/28 09:51:25;;;;;;;1.92;0.70;;;15.10;68.40;;;;;;4206175;28;20160;-76
2022/05/28 09:56:03;;;;;;;5.10;0.98;;;15.00;65.80;;;;;;4202272;28;20061;-76
2022/05/28 09:58:05;;;;;;;5.32;0.80;;;15.10;63.70;;;;;;4209405;28;20155;-76
2022/05/28 10:00:11;;;;;;;2.13;0.60;;;15.10;65.00;;;;;;4206421;28;20146;-76
2022/05/28 10:02:25;;;;;;;4.90;1.10;;;15.30;65.90;;;;;;4206408;28;20253;-78
2022/05/28 10:04:30;;;;;;;2.30;0.93;;;15.30;61.80;;;;;;4210729;28;20060;-76
2022/05/28 10:06:33;;;;;;;2.72;0.60;;;15.00;64.30;;;;;;4211762;28;20134;-75
2022/05/28 10:08:34;;;;;;;4.13;1.35;;;15.10;64.40;;;;;;4212139;28;20851;-75
2022/05/28 10:10:38;;;;;;;2.65;0.70;;;15.20;62.60;;;;;;4211816;28;20092;-75
2022/05/28 10:12:40;;;;;;;1.95;0.70;;;15.00;62.60;;;;;;4210527;28;20156;-75
2022/05/28 10:14:42;;;;;;;2.17;0.70;;;15.00;65.00;;;;;;4210190;28;20174;-77
2022/05/28 10:16:48;;;;;;;1.63;0.77;;;15.10;63.30;;;;;;4211641;28;20167;-76
2022/05/28 10:18:55;;;;;;;4.75;1.00;;;15.50;67.40;;;;;;4212150;28;20056;-77
2022/05/28 10:21:04;;;;;;;2.83;0.77;;;15.90;65.90;;;;;;4211558;28;20060;-76
2022/05/28 10:23:15;;;;;;;4.97;0.80;;;16.00;64.00;;;;;;4211394;28;20067;-75
2022/05/28 10:25:37;;;;;;;;;;;15.80;62.10;;;;;;4212039;28;20076;-76
2022/05/28 10:27:49;;;;;;;4.63;1.95;;;15.80;63.90;;;;;;4209372;28;19917;-77
2022/05/28 10:29:52;;;;;;;4.95;2.45;;;15.90;63.60;;;;;;4206297;28;20087;-76
2022/05/28 10:31:57;;;;;;;6.95;3.15;;;16.20;62.90;;;;;;4208039;28;20067;-77
2022/05/28 10:34:19;;;;;;;4.43;1.25;;;16.60;65.00;;;;;;4202081;28;20171;-73
2022/05/28 10:36:25;;;;;;;1.35;0.50;;;16.90;57.90;;;;;;4202264;28;20665;-74
2022/05/28 10:38:27;;;;;;;3.67;0.77;;;16.50;57.50;;;;;;4204673;28;20099;-75
2022/05/28 10:40:29;;;;;;;1.30;0.30;;;16.30;58.00;;;;;;4206027;28;20255;-74
2022/05/28 10:42:31;;;;;;;3.55;1.30;;;16.30;58.50;;;;;;4210215;28;20064;-75
2022/05/28 10:44:33;;;;;;;2.08;0.60;;;16.10;59.90;;;;;;4198759;28;20863;-74
2022/05/28 10:46:56;;;;;;;1.50;0.70;;;16.10;61.20;;;;;;4203246;28;20061;-75
2022/05/28 10:49:16;;;;;;;1.55;0.70;;;15.90;60.70;;;;;;4200234;28;20057;-77
2022/05/28 10:51:30;;;;;;;2.88;1.38;;;15.60;61.00;;;;;;4199980;28;20048;-76
2022/05/28 10:53:52;;;;;;;3.05;0.70;;;15.50;59.80;;;;;;4198752;28;20057;-75
2022/05/28 10:56:24;;;;;;;3.28;0.70;;;15.30;60.30;;;;;;4202702;28;20084;-73